sensor_id;sensor_type;location;lat;lon;timestamp;P1;durP1;ratioP1;P2;durP2;ratioP2
35540;SDS011;21650;48.840;9.162;2023-08-31T00:01:08;6.43;;;2.60;;
35540;SDS011;21650;48.840;9.162;2023-08-31T00:03:34;3.27;;;2.37;;
35540;SDS011;21650;48.840;9.162;2023-08-31T00:06:03;3.40;;;2.37;;
35540;SDS011;21650;48.840;9.162;2023-08-31T00:08:29;4.03;;;3.03;;
35540;SDS011;21650;48.840;9.162;2023-08-31T00:10:56;4.77;;;2.83;;
35540;SDS011;21650;48.840;9.162;2023-08-31T00:13:22;3.83;;;2.33;;
35540;SDS011;21650;48.840;9.162;2023-08-31T00:15:47;2.97;;;2.50;;
35540;SDS011;21650;48.840;9.162;2023-08-31T00:18:13;6.13;;;2.43;;
35540;SDS011;21650;48.840;9.162;2023-08-31T00:20:41;2.60;;;2.40;;
35540;SDS011;21650;48.840;9.162;2023-08-31T00:23:07;4.90;;;2.40;;
35540;SDS011;21650;48.840;9.162;2023-08-31T00:25:32;6.17;;;2.30;;
35540;SDS011;21650;48.840;9.162;2023-08-31T00:27:58;6.20;;;2.73;;
35540;SDS011;21650;48.840;9.162;2023-08-31T00:30:29;4.80;;;2.97;;
35540;SDS011;21650;48.840;9.162;2023-08-31T00:32:57;5.20;;;2.57;;
35540;SDS011;21650;48.840;9.162;2023-08-31T00:35:25;6.10;;;3.13;;
35540;SDS011;21650;48.840;9.162;2023-08-31T00:37:52;4.90;;;2.80;;
35540;SDS011;21650;48.840;9.162;2023-08-31T00:40:23;7.37;;;2.60;;
35540;SDS011;21650;48.840;9.162;2023-08-31T00:42:49;3.50;;;3.20;;
35540;SDS011;21650;48.840;9.162;2023-08-31T00:45:14;3.03;;;2.70;;
35540;SDS011;21650;48.840;9.162;2023-08-31T00:47:40;3.23;;;2.87;;
35540;SDS011;21650;48.840;9.162;2023-08-31T00:50:06;5.60;;;2.63;;
35540;SDS011;21650;48.840;9.162;2023-08-31T00:52:33;4.40;;;3.03;;
35540;SDS011;21650;48.840;9.162;2023-08-31T00:54:59;2.83;;;2.53;;
35540;SDS011;21650;48.840;9.162;2023-08-31T00:57:28;3.43;;;2.57;;
35540;SDS011;21650;48.840;9.162;2023-08-31T00:59:53;3.57;;;2.80;;
35540;SDS011;21650;48.840;9.162;2023-08-31T01:02:22;4.13;;;2.87;;
35540;SDS011;21650;48.840;9.162;2023-08-31T01:05:00;3.83;;;2.63;;
35540;SDS011;21650;48.840;9.162;2023-08-31T01:10:25;5.50;;;2.40;;
35540;SDS011;21650;48.840;9.162;2023-08-31T01:13:14;5.57;;;2.73;;
35540;SDS011;21650;48.840;9.162;2023-08-31T01:15:44;3.30;;;2.80;;
35540;SDS011;21650;48.840;9.162;2023-08-31T01:18:12;3.70;;;2.90;;
35540;SDS011;21650;48.840;9.162;2023-08-31T01:20:53;6.57;;;3.07;;
35540;SDS011;21650;48.840;9.162;2023-08-31T01:23:27;5.17;;;3.63;;
35540;SDS011;21650;48.840;9.162;2023-08-31T01:25:59;4.33;;;3.20;;
35540;SDS011;21650;48.840;9.162;2023-08-31T01:28:25;5.57;;;3.27;;
35540;SDS011;21650;48.840;9.162;2023-08-31T01:30:51;4.83;;;2.67;;
35540;SDS011;21650;48.840;9.162;2023-08-31T01:33:17;5.20;;;3.27;;
35540;SDS011;21650;48.840;9.162;2023-08-31T01:35:43;4.60;;;3.20;;
35540;SDS011;21650;48.840;9.162;2023-08-31T01:38:15;5.17;;;2.90;;
35540;SDS011;21650;48.840;9.162;2023-08-31T01:40:49;6.37;;;3.13;;
35540;SDS011;21650;48.840;9.162;2023-08-31T01:43:33;3.53;;;3.07;;
35540;SDS011;21650;48.840;9.162;2023-08-31T01:46:00;4.83;;;2.73;;
35540;SDS011;21650;48.840;9.162;2023-08-31T01:48:25;5.10;;;2.87;;
35540;SDS011;21650;48.840;9.162;2023-08-31T01:50:51;3.50;;;2.80;;
35540;SDS011;21650;48.840;9.162;2023-08-31T01:53:17;3.23;;;2.73;;
35540;SDS011;21650;48.840;9.162;2023-08-31T01:55:42;5.63;;;3.43;;
35540;SDS011;21650;48.840;9.162;2023-08-31T01:58:08;6.17;;;3.37;;
35540;SDS011;21650;48.840;9.162;2023-08-31T02:00:33;4.70;;;2.87;;
35540;SDS011;21650;48.840;9.162;2023-08-31T02:03:00;5.77;;;3.43;;
35540;SDS011;21650;48.840;9.162;2023-08-31T02:05:26;6.50;;;3.40;;
35540;SDS011;21650;48.840;9.162;2023-08-31T02:07:52;3.73;;;3.27;;
35540;SDS011;21650;48.840;9.162;2023-08-31T02:10:18;7.90;;;3.30;;
35540;SDS011;21650;48.840;9.162;2023-08-31T02:12:43;4.33;;;2.97;;
35540;SDS011;21650;48.840;9.162;2023-08-31T02:15:09;5.10;;;3.27;;
35540;SDS011;21650;48.840;9.162;2023-08-31T02:17:35;4.07;;;3.20;;
35540;SDS011;21650;48.840;9.162;2023-08-31T02:20:00;3.90;;;3.27;;
35540;SDS011;21650;48.840;9.162;2023-08-31T02:22:29;5.37;;;3.90;;
35540;SDS011;21650;48.840;9.162;2023-08-31T02:24:56;5.40;;;3.17;;
35540;SDS011;21650;48.840;9.162;2023-08-31T02:27:21;5.00;;;3.10;;
35540;SDS011;21650;48.840;9.162;2023-08-31T02:29:47;6.53;;;3.10;;
35540;SDS011;21650;48.840;9.162;2023-08-31T02:32:12;5.83;;;3.87;;
35540;SDS011;21650;48.840;9.162;2023-08-31T02:34:38;3.77;;;3.43;;
35540;SDS011;21650;48.840;9.162;2023-08-31T02:37:03;5.43;;;4.30;;
35540;SDS011;21650;48.840;9.162;2023-08-31T02:39:29;4.77;;;3.40;;
35540;SDS011;21650;48.840;9.162;2023-08-31T02:41:55;6.30;;;3.50;;
35540;SDS011;21650;48.840;9.162;2023-08-31T02:44:20;6.43;;;3.37;;
35540;SDS011;21650;48.840;9.162;2023-08-31T02:46:46;7.87;;;3.57;;
35540;SDS011;21650;48.840;9.162;2023-08-31T02:49:11;4.53;;;3.20;;
35540;SDS011;21650;48.840;9.162;2023-08-31T02:51:37;5.37;;;3.23;;
35540;SDS011;21650;48.840;9.162;2023-08-31T02:54:02;4.67;;;3.53;;
35540;SDS011;21650;48.840;9.162;2023-08-31T02:56:28;5.70;;;3.10;;
35540;SDS011;21650;48.840;9.162;2023-08-31T02:58:54;3.90;;;3.23;;
35540;SDS011;21650;48.840;9.162;2023-08-31T03:01:19;4.90;;;3.30;;
35540;SDS011;21650;48.840;9.162;2023-08-31T03:03:45;5.33;;;2.90;;
35540;SDS011;21650;48.840;9.162;2023-08-31T03:06:11;3.47;;;2.97;;
35540;SDS011;21650;48.840;9.162;2023-08-31T03:08:37;8.43;;;3.77;;
35540;SDS011;21650;48.840;9.162;2023-08-31T03:11:04;6.00;;;3.33;;
35540;SDS011;21650;48.840;9.162;2023-08-31T03:13:30;4.43;;;2.97;;
35540;SDS011;21650;48.840;9.162;2023-08-31T03:15:56;5.13;;;2.90;;
35540;SDS011;21650;48.840;9.162;2023-08-31T03:18:22;4.40;;;3.07;;
35540;SDS011;21650;48.840;9.162;2023-08-31T03:20:48;4.50;;;2.60;;
35540;SDS011;21650;48.840;9.162;2023-08-31T03:23:14;3.83;;;2.60;;
35540;SDS011;21650;48.840;9.162;2023-08-31T03:25:39;4.97;;;2.87;;
35540;SDS011;21650;48.840;9.162;2023-08-31T03:28:05;4.93;;;2.40;;
35540;SDS011;21650;48.840;9.162;2023-08-31T03:30:30;5.40;;;3.17;;
35540;SDS011;21650;48.840;9.162;2023-08-31T03:32:56;2.93;;;2.50;;
35540;SDS011;21650;48.840;9.162;2023-08-31T03:35:22;4.27;;;2.73;;
35540;SDS011;21650;48.840;9.162;2023-08-31T03:37:51;5.80;;;3.30;;
35540;SDS011;21650;48.840;9.162;2023-08-31T03:40:20;3.57;;;2.50;;
35540;SDS011;21650;48.840;9.162;2023-08-31T03:42:47;4.93;;;2.50;;
35540;SDS011;21650;48.840;9.162;2023-08-31T03:45:13;4.43;;;2.90;;
35540;SDS011;21650;48.840;9.162;2023-08-31T03:47:39;4.07;;;2.83;;
35540;SDS011;21650;48.840;9.162;2023-08-31T03:50:04;7.60;;;2.50;;
35540;SDS011;21650;48.840;9.162;2023-08-31T03:52:31;4.70;;;3.27;;
35540;SDS011;21650;48.840;9.162;2023-08-31T03:54:57;3.53;;;2.83;;
35540;SDS011;21650;48.840;9.162;2023-08-31T03:57:22;5.90;;;3.10;;
35540;SDS011;21650;48.840;9.162;2023-08-31T03:59:48;3.47;;;2.63;;
35540;SDS011;21650;48.840;9.162;2023-08-31T04:02:13;6.37;;;3.10;;
35540;SDS011;21650;48.840;9.162;2023-08-31T04:04:39;4.73;;;3.00;;
35540;SDS011;21650;48.840;9.162;2023-08-31T04:07:05;5.33;;;2.80;;
35540;SDS011;21650;48.840;9.162;2023-08-31T04:09:31;5.40;;;3.37;;
35540;SDS011;21650;48.840;9.162;2023-08-31T04:11:56;6.20;;;3.00;;
35540;SDS011;21650;48.840;9.162;2023-08-31T04:14:22;7.73;;;2.60;;
35540;SDS011;21650;48.840;9.162;2023-08-31T04:16:47;3.20;;;2.83;;
35540;SDS011;21650;48.840;9.162;2023-08-31T04:19:15;5.23;;;2.50;;
35540;SDS011;21650;48.840;9.162;2023-08-31T04:21:41;7.23;;;2.73;;
35540;SDS011;21650;48.840;9.162;2023-08-31T04:24:07;4.47;;;2.70;;
35540;SDS011;21650;48.840;9.162;2023-08-31T04:26:33;4.10;;;2.87;;
35540;SDS011;21650;48.840;9.162;2023-08-31T04:28:59;4.17;;;2.63;;
35540;SDS011;21650;48.840;9.162;2023-08-31T04:31:24;5.77;;;2.63;;
35540;SDS011;21650;48.840;9.162;2023-08-31T04:33:50;4.50;;;2.90;;
35540;SDS011;21650;48.840;9.162;2023-08-31T04:36:18;6.23;;;3.03;;
35540;SDS011;21650;48.840;9.162;2023-08-31T04:38:45;2.53;;;2.30;;
35540;SDS011;21650;48.840;9.162;2023-08-31T04:41:10;3.73;;;3.20;;
35540;SDS011;21650;48.840;9.162;2023-08-31T04:43:36;7.80;;;2.70;;
35540;SDS011;21650;48.840;9.162;2023-08-31T04:46:01;6.10;;;2.83;;
35540;SDS011;21650;48.840;9.162;2023-08-31T04:48:28;4.83;;;2.87;;
35540;SDS011;21650;48.840;9.162;2023-08-31T04:50:55;5.43;;;3.60;;
35540;SDS011;21650;48.840;9.162;2023-08-31T04:53:22;7.63;;;2.80;;
35540;SDS011;21650;48.840;9.162;2023-08-31T04:55:47;9.43;;;3.70;;
35540;SDS011;21650;48.840;9.162;2023-08-31T04:58:13;5.83;;;3.73;;
35540;SDS011;21650;48.840;9.162;2023-08-31T05:00:38;6.33;;;3.57;;
35540;SDS011;21650;48.840;9.162;2023-08-31T05:03:04;4.13;;;3.27;;
35540;SDS011;21650;48.840;9.162;2023-08-31T05:05:30;4.87;;;3.53;;
35540;SDS011;21650;48.840;9.162;2023-08-31T05:07:55;4.77;;;3.10;;
35540;SDS011;21650;48.840;9.162;2023-08-31T05:10:21;4.47;;;2.77;;
35540;SDS011;21650;48.840;9.162;2023-08-31T05:12:47;6.60;;;3.43;;
35540;SDS011;21650;48.840;9.162;2023-08-31T05:15:13;4.77;;;2.90;;
35540;SDS011;21650;48.840;9.162;2023-08-31T05:17:38;7.00;;;3.50;;
35540;SDS011;21650;48.840;9.162;2023-08-31T05:20:04;4.13;;;3.03;;
35540;SDS011;21650;48.840;9.162;2023-08-31T05:22:30;4.53;;;3.30;;
35540;SDS011;21650;48.840;9.162;2023-08-31T05:24:56;6.07;;;3.10;;
35540;SDS011;21650;48.840;9.162;2023-08-31T05:27:21;4.97;;;2.67;;
35540;SDS011;21650;48.840;9.162;2023-08-31T05:29:47;4.83;;;3.07;;
35540;SDS011;21650;48.840;9.162;2023-08-31T05:32:12;5.93;;;3.10;;
35540;SDS011;21650;48.840;9.162;2023-08-31T05:34:38;6.37;;;3.00;;
35540;SDS011;21650;48.840;9.162;2023-08-31T05:37:04;8.67;;;3.53;;
35540;SDS011;21650;48.840;9.162;2023-08-31T05:39:30;6.80;;;3.60;;
35540;SDS011;21650;48.840;9.162;2023-08-31T05:41:56;4.80;;;2.77;;
35540;SDS011;21650;48.840;9.162;2023-08-31T05:44:22;6.20;;;2.60;;
35540;SDS011;21650;48.840;9.162;2023-08-31T05:46:47;6.70;;;3.20;;
35540;SDS011;21650;48.840;9.162;2023-08-31T05:49:13;4.97;;;3.03;;
35540;SDS011;21650;48.840;9.162;2023-08-31T05:51:38;5.03;;;2.50;;
35540;SDS011;21650;48.840;9.162;2023-08-31T05:54:04;4.57;;;2.57;;
35540;SDS011;21650;48.840;9.162;2023-08-31T05:56:30;4.27;;;2.50;;
35540;SDS011;21650;48.840;9.162;2023-08-31T05:58:55;3.53;;;2.73;;
35540;SDS011;21650;48.840;9.162;2023-08-31T06:01:21;4.30;;;3.00;;
35540;SDS011;21650;48.840;9.162;2023-08-31T06:03:49;5.23;;;3.10;;
35540;SDS011;21650;48.840;9.162;2023-08-31T06:06:15;3.40;;;2.77;;
35540;SDS011;21650;48.840;9.162;2023-08-31T06:08:41;3.77;;;2.27;;
35540;SDS011;21650;48.840;9.162;2023-08-31T06:11:08;7.60;;;3.03;;
35540;SDS011;21650;48.840;9.162;2023-08-31T06:13:33;5.90;;;2.67;;
35540;SDS011;21650;48.840;9.162;2023-08-31T06:15:59;3.17;;;2.50;;
35540;SDS011;21650;48.840;9.162;2023-08-31T06:18:25;5.10;;;2.73;;
35540;SDS011;21650;48.840;9.162;2023-08-31T06:20:51;3.37;;;2.23;;
35540;SDS011;21650;48.840;9.162;2023-08-31T06:23:16;5.20;;;2.90;;
35540;SDS011;21650;48.840;9.162;2023-08-31T06:25:42;7.57;;;3.10;;
35540;SDS011;21650;48.840;9.162;2023-08-31T06:28:10;5.03;;;2.70;;
35540;SDS011;21650;48.840;9.162;2023-08-31T06:30:36;4.77;;;4.07;;
35540;SDS011;21650;48.840;9.162;2023-08-31T06:33:02;3.57;;;2.87;;
35540;SDS011;21650;48.840;9.162;2023-08-31T06:35:28;5.33;;;2.70;;
35540;SDS011;21650;48.840;9.162;2023-08-31T06:37:53;8.37;;;2.83;;
35540;SDS011;21650;48.840;9.162;2023-08-31T06:40:21;11.90;;;3.20;;
35540;SDS011;21650;48.840;9.162;2023-08-31T06:42:46;6.57;;;3.20;;
35540;SDS011;21650;48.840;9.162;2023-08-31T06:45:12;4.90;;;3.40;;
35540;SDS011;21650;48.840;9.162;2023-08-31T06:47:38;7.13;;;2.60;;
35540;SDS011;21650;48.840;9.162;2023-08-31T06:50:03;4.93;;;2.50;;
35540;SDS011;21650;48.840;9.162;2023-08-31T06:52:29;6.77;;;3.37;;
35540;SDS011;21650;48.840;9.162;2023-08-31T06:54:55;3.47;;;2.60;;
35540;SDS011;21650;48.840;9.162;2023-08-31T06:57:24;3.27;;;2.23;;
35540;SDS011;21650;48.840;9.162;2023-08-31T06:59:51;7.07;;;3.17;;
35540;SDS011;21650;48.840;9.162;2023-08-31T07:02:17;5.90;;;2.40;;
35540;SDS011;21650;48.840;9.162;2023-08-31T07:04:47;5.07;;;2.07;;
35540;SDS011;21650;48.840;9.162;2023-08-31T07:07:13;5.30;;;2.60;;
35540;SDS011;21650;48.840;9.162;2023-08-31T07:09:41;7.80;;;2.37;;
35540;SDS011;21650;48.840;9.162;2023-08-31T07:12:07;6.30;;;2.80;;
35540;SDS011;21650;48.840;9.162;2023-08-31T07:14:33;6.60;;;2.97;;
35540;SDS011;21650;48.840;9.162;2023-08-31T07:16:59;3.43;;;2.27;;
35540;SDS011;21650;48.840;9.162;2023-08-31T07:19:24;6.80;;;2.63;;
35540;SDS011;21650;48.840;9.162;2023-08-31T07:21:50;4.07;;;2.30;;
35540;SDS011;21650;48.840;9.162;2023-08-31T07:24:15;3.97;;;2.20;;
35540;SDS011;21650;48.840;9.162;2023-08-31T07:26:41;4.83;;;2.30;;
35540;SDS011;21650;48.840;9.162;2023-08-31T07:29:06;5.20;;;3.00;;
35540;SDS011;21650;48.840;9.162;2023-08-31T07:31:32;5.50;;;2.53;;
35540;SDS011;21650;48.840;9.162;2023-08-31T07:33:58;5.10;;;2.03;;
35540;SDS011;21650;48.840;9.162;2023-08-31T07:36:24;5.97;;;2.70;;
35540;SDS011;21650;48.840;9.162;2023-08-31T07:38:50;3.83;;;2.27;;
35540;SDS011;21650;48.840;9.162;2023-08-31T07:41:15;3.27;;;2.40;;
35540;SDS011;21650;48.840;9.162;2023-08-31T07:43:41;5.30;;;3.20;;
35540;SDS011;21650;48.840;9.162;2023-08-31T07:46:06;5.00;;;2.93;;
35540;SDS011;21650;48.840;9.162;2023-08-31T07:48:32;4.80;;;2.10;;
35540;SDS011;21650;48.840;9.162;2023-08-31T07:50:57;5.00;;;2.00;;
35540;SDS011;21650;48.840;9.162;2023-08-31T07:53:23;6.17;;;2.27;;
35540;SDS011;21650;48.840;9.162;2023-08-31T07:55:52;6.43;;;2.43;;
35540;SDS011;21650;48.840;9.162;2023-08-31T07:58:24;3.13;;;1.87;;
35540;SDS011;21650;48.840;9.162;2023-08-31T08:00:53;4.03;;;2.20;;
35540;SDS011;21650;48.840;9.162;2023-08-31T08:03:21;5.00;;;1.77;;
35540;SDS011;21650;48.840;9.162;2023-08-31T08:05:50;4.57;;;2.17;;
35540;SDS011;21650;48.840;9.162;2023-08-31T08:08:16;3.67;;;1.80;;
35540;SDS011;21650;48.840;9.162;2023-08-31T08:10:42;4.90;;;2.00;;
35540;SDS011;21650;48.840;9.162;2023-08-31T08:13:08;3.90;;;2.10;;
35540;SDS011;21650;48.840;9.162;2023-08-31T08:15:34;5.43;;;1.93;;
35540;SDS011;21650;48.840;9.162;2023-08-31T08:18:00;6.63;;;2.17;;
35540;SDS011;21650;48.840;9.162;2023-08-31T08:20:26;4.00;;;2.00;;
35540;SDS011;21650;48.840;9.162;2023-08-31T08:22:53;3.60;;;1.80;;
35540;SDS011;21650;48.840;9.162;2023-08-31T08:25:19;7.70;;;2.37;;
35540;SDS011;21650;48.840;9.162;2023-08-31T08:27:46;3.00;;;2.07;;
35540;SDS011;21650;48.840;9.162;2023-08-31T08:30:12;3.03;;;1.70;;
35540;SDS011;21650;48.840;9.162;2023-08-31T08:32:38;3.57;;;2.20;;
35540;SDS011;21650;48.840;9.162;2023-08-31T08:35:04;7.73;;;2.40;;
35540;SDS011;21650;48.840;9.162;2023-08-31T08:37:30;5.03;;;1.93;;
35540;SDS011;21650;48.840;9.162;2023-08-31T08:39:58;3.20;;;1.90;;
35540;SDS011;21650;48.840;9.162;2023-08-31T08:42:24;3.17;;;1.83;;
35540;SDS011;21650;48.840;9.162;2023-08-31T08:44:50;4.63;;;1.87;;
35540;SDS011;21650;48.840;9.162;2023-08-31T08:47:17;5.47;;;2.33;;
35540;SDS011;21650;48.840;9.162;2023-08-31T08:49:43;5.20;;;1.70;;
35540;SDS011;21650;48.840;9.162;2023-08-31T08:52:09;5.70;;;2.10;;
35540;SDS011;21650;48.840;9.162;2023-08-31T08:54:35;4.33;;;2.10;;
35540;SDS011;21650;48.840;9.162;2023-08-31T08:57:01;2.60;;;1.60;;
35540;SDS011;21650;48.840;9.162;2023-08-31T08:59:28;2.93;;;1.83;;
35540;SDS011;21650;48.840;9.162;2023-08-31T09:01:56;3.30;;;1.80;;
35540;SDS011;21650;48.840;9.162;2023-08-31T09:04:22;3.83;;;1.70;;
35540;SDS011;21650;48.840;9.162;2023-08-31T09:06:47;5.80;;;2.00;;
35540;SDS011;21650;48.840;9.162;2023-08-31T09:09:15;5.73;;;1.70;;
35540;SDS011;21650;48.840;9.162;2023-08-31T09:11:42;9.17;;;2.87;;
35540;SDS011;21650;48.840;9.162;2023-08-31T09:14:14;3.77;;;2.00;;
35540;SDS011;21650;48.840;9.162;2023-08-31T09:16:43;2.53;;;1.57;;
35540;SDS011;21650;48.840;9.162;2023-08-31T09:21:55;4.83;;;1.73;;
35540;SDS011;21650;48.840;9.162;2023-08-31T09:24:22;2.43;;;1.30;;
35540;SDS011;21650;48.840;9.162;2023-08-31T09:26:51;4.27;;;2.00;;
35540;SDS011;21650;48.840;9.162;2023-08-31T09:29:20;3.60;;;1.60;;
35540;SDS011;21650;48.840;9.162;2023-08-31T09:31:46;3.60;;;1.67;;
35540;SDS011;21650;48.840;9.162;2023-08-31T09:34:15;5.23;;;2.00;;
35540;SDS011;21650;48.840;9.162;2023-08-31T09:36:42;3.97;;;1.33;;
35540;SDS011;21650;48.840;9.162;2023-08-31T09:39:08;4.13;;;1.70;;
35540;SDS011;21650;48.840;9.162;2023-08-31T09:41:34;3.97;;;1.67;;
35540;SDS011;21650;48.840;9.162;2023-08-31T09:44:17;4.73;;;1.70;;
35540;SDS011;21650;48.840;9.162;2023-08-31T09:46:44;4.73;;;1.40;;
35540;SDS011;21650;48.840;9.162;2023-08-31T09:49:10;2.50;;;1.43;;
35540;SDS011;21650;48.840;9.162;2023-08-31T09:51:41;4.60;;;1.83;;
35540;SDS011;21650;48.840;9.162;2023-08-31T09:54:13;6.33;;;1.43;;
35540;SDS011;21650;48.840;9.162;2023-08-31T09:56:40;3.27;;;1.40;;
35540;SDS011;21650;48.840;9.162;2023-08-31T09:59:08;3.37;;;1.30;;
35540;SDS011;21650;48.840;9.162;2023-08-31T10:01:37;3.13;;;1.30;;
35540;SDS011;21650;48.840;9.162;2023-08-31T10:04:04;3.10;;;1.50;;
35540;SDS011;21650;48.840;9.162;2023-08-31T10:06:32;2.73;;;1.47;;
35540;SDS011;21650;48.840;9.162;2023-08-31T10:08:58;2.67;;;1.50;;
35540;SDS011;21650;48.840;9.162;2023-08-31T10:11:24;3.30;;;2.00;;
35540;SDS011;21650;48.840;9.162;2023-08-31T10:13:50;4.03;;;1.30;;
35540;SDS011;21650;48.840;9.162;2023-08-31T10:16:18;3.30;;;1.70;;
35540;SDS011;21650;48.840;9.162;2023-08-31T10:18:45;3.30;;;1.90;;
35540;SDS011;21650;48.840;9.162;2023-08-31T10:21:11;3.57;;;1.40;;
35540;SDS011;21650;48.840;9.162;2023-08-31T10:23:50;3.70;;;1.37;;
35540;SDS011;21650;48.840;9.162;2023-08-31T10:26:23;3.80;;;1.60;;
35540;SDS011;21650;48.840;9.162;2023-08-31T10:28:50;2.93;;;1.40;;
35540;SDS011;21650;48.840;9.162;2023-08-31T10:31:16;4.07;;;1.57;;
35540;SDS011;21650;48.840;9.162;2023-08-31T10:33:43;4.10;;;1.70;;
35540;SDS011;21650;48.840;9.162;2023-08-31T10:36:19;4.47;;;1.60;;
35540;SDS011;21650;48.840;9.162;2023-08-31T10:39:30;3.73;;;1.27;;
35540;SDS011;21650;48.840;9.162;2023-08-31T10:41:36;2.53;;;1.10;;
35540;SDS011;21650;48.840;9.162;2023-08-31T10:44:02;3.70;;;1.53;;
35540;SDS011;21650;48.840;9.162;2023-08-31T10:46:43;3.33;;;1.70;;
35540;SDS011;21650;48.840;9.162;2023-08-31T10:51:35;4.93;;;1.63;;
35540;SDS011;21650;48.840;9.162;2023-08-31T10:59:50;6.40;;;2.40;;
35540;SDS011;21650;48.840;9.162;2023-08-31T11:02:27;3.90;;;1.70;;
35540;SDS011;21650;48.840;9.162;2023-08-31T11:05:09;8.53;;;2.10;;
35540;SDS011;21650;48.840;9.162;2023-08-31T11:07:37;3.20;;;1.80;;
35540;SDS011;21650;48.840;9.162;2023-08-31T11:12:45;6.13;;;1.73;;
35540;SDS011;21650;48.840;9.162;2023-08-31T11:15:12;4.17;;;1.77;;
35540;SDS011;21650;48.840;9.162;2023-08-31T11:17:45;4.83;;;1.63;;
35540;SDS011;21650;48.840;9.162;2023-08-31T11:20:15;3.80;;;1.67;;
35540;SDS011;21650;48.840;9.162;2023-08-31T11:22:42;5.53;;;1.97;;
35540;SDS011;21650;48.840;9.162;2023-08-31T11:25:09;3.00;;;1.70;;
35540;SDS011;21650;48.840;9.162;2023-08-31T11:27:37;5.87;;;2.13;;
35540;SDS011;21650;48.840;9.162;2023-08-31T11:30:10;2.90;;;1.80;;
35540;SDS011;21650;48.840;9.162;2023-08-31T11:32:42;5.53;;;2.20;;
35540;SDS011;21650;48.840;9.162;2023-08-31T11:35:18;9.63;;;1.83;;
35540;SDS011;21650;48.840;9.162;2023-08-31T11:37:48;4.37;;;1.83;;
35540;SDS011;21650;48.840;9.162;2023-08-31T11:40:15;3.37;;;1.93;;
35540;SDS011;21650;48.840;9.162;2023-08-31T11:42:40;3.80;;;2.10;;
35540;SDS011;21650;48.840;9.162;2023-08-31T11:45:06;2.53;;;1.50;;
35540;SDS011;21650;48.840;9.162;2023-08-31T11:47:33;6.30;;;1.60;;
35540;SDS011;21650;48.840;9.162;2023-08-31T11:49:59;5.60;;;2.37;;
35540;SDS011;21650;48.840;9.162;2023-08-31T11:52:28;5.47;;;1.97;;
35540;SDS011;21650;48.840;9.162;2023-08-31T11:54:56;8.70;;;2.23;;
35540;SDS011;21650;48.840;9.162;2023-08-31T11:57:25;3.83;;;1.73;;
35540;SDS011;21650;48.840;9.162;2023-08-31T11:59:51;5.90;;;2.00;;
35540;SDS011;21650;48.840;9.162;2023-08-31T12:02:20;5.10;;;1.80;;
35540;SDS011;21650;48.840;9.162;2023-08-31T12:04:46;5.57;;;1.70;;
35540;SDS011;21650;48.840;9.162;2023-08-31T12:07:16;6.03;;;2.30;;
35540;SDS011;21650;48.840;9.162;2023-08-31T12:09:43;5.43;;;1.90;;
35540;SDS011;21650;48.840;9.162;2023-08-31T12:12:15;4.27;;;1.80;;
35540;SDS011;21650;48.840;9.162;2023-08-31T12:14:45;3.20;;;1.60;;
35540;SDS011;21650;48.840;9.162;2023-08-31T12:17:10;4.07;;;2.03;;
35540;SDS011;21650;48.840;9.162;2023-08-31T12:19:36;6.27;;;2.70;;
35540;SDS011;21650;48.840;9.162;2023-08-31T12:22:04;5.23;;;1.80;;
35540;SDS011;21650;48.840;9.162;2023-08-31T12:24:30;4.97;;;2.00;;
35540;SDS011;21650;48.840;9.162;2023-08-31T12:27:03;5.03;;;2.00;;
35540;SDS011;21650;48.840;9.162;2023-08-31T12:29:30;7.23;;;2.17;;
35540;SDS011;21650;48.840;9.162;2023-08-31T12:31:55;4.73;;;1.73;;
35540;SDS011;21650;48.840;9.162;2023-08-31T12:34:21;5.23;;;1.70;;
35540;SDS011;21650;48.840;9.162;2023-08-31T12:36:46;4.87;;;2.33;;
35540;SDS011;21650;48.840;9.162;2023-08-31T12:39:12;3.23;;;2.00;;
35540;SDS011;21650;48.840;9.162;2023-08-31T12:41:38;5.07;;;1.97;;
35540;SDS011;21650;48.840;9.162;2023-08-31T12:44:05;3.13;;;1.80;;
35540;SDS011;21650;48.840;9.162;2023-08-31T12:46:31;4.83;;;2.33;;
35540;SDS011;21650;48.840;9.162;2023-08-31T12:48:57;4.63;;;2.10;;
35540;SDS011;21650;48.840;9.162;2023-08-31T12:51:22;6.00;;;2.07;;
35540;SDS011;21650;48.840;9.162;2023-08-31T12:53:48;4.60;;;1.57;;
35540;SDS011;21650;48.840;9.162;2023-08-31T12:56:14;3.20;;;1.57;;
35540;SDS011;21650;48.840;9.162;2023-08-31T12:58:53;6.13;;;1.70;;
35540;SDS011;21650;48.840;9.162;2023-08-31T13:01:19;2.60;;;1.63;;
35540;SDS011;21650;48.840;9.162;2023-08-31T13:03:46;6.10;;;1.67;;
35540;SDS011;21650;48.840;9.162;2023-08-31T13:06:12;5.00;;;1.77;;
35540;SDS011;21650;48.840;9.162;2023-08-31T13:08:40;5.20;;;2.10;;
35540;SDS011;21650;48.840;9.162;2023-08-31T13:11:06;7.87;;;2.17;;
35540;SDS011;21650;48.840;9.162;2023-08-31T13:13:32;6.97;;;1.90;;
35540;SDS011;21650;48.840;9.162;2023-08-31T13:15:57;3.60;;;1.70;;
35540;SDS011;21650;48.840;9.162;2023-08-31T13:18:23;7.93;;;2.43;;
35540;SDS011;21650;48.840;9.162;2023-08-31T13:20:52;1.60;;;1.33;;
35540;SDS011;21650;48.840;9.162;2023-08-31T13:23:18;5.13;;;1.70;;
35540;SDS011;21650;48.840;9.162;2023-08-31T13:25:45;4.10;;;1.60;;
35540;SDS011;21650;48.840;9.162;2023-08-31T13:28:10;2.57;;;1.30;;
35540;SDS011;21650;48.840;9.162;2023-08-31T13:30:36;4.30;;;1.60;;
35540;SDS011;21650;48.840;9.162;2023-08-31T13:33:02;2.23;;;1.67;;
35540;SDS011;21650;48.840;9.162;2023-08-31T13:35:29;4.53;;;2.03;;
35540;SDS011;21650;48.840;9.162;2023-08-31T13:37:55;5.27;;;1.90;;
35540;SDS011;21650;48.840;9.162;2023-08-31T13:40:20;4.23;;;1.90;;
35540;SDS011;21650;48.840;9.162;2023-08-31T13:42:53;5.07;;;1.57;;
35540;SDS011;21650;48.840;9.162;2023-08-31T13:45:22;5.40;;;2.30;;
35540;SDS011;21650;48.840;9.162;2023-08-31T13:47:48;3.40;;;1.33;;
35540;SDS011;21650;48.840;9.162;2023-08-31T13:50:14;7.60;;;2.07;;
35540;SDS011;21650;48.840;9.162;2023-08-31T13:52:40;4.57;;;1.83;;
35540;SDS011;21650;48.840;9.162;2023-08-31T13:55:06;6.10;;;2.13;;
35540;SDS011;21650;48.840;9.162;2023-08-31T13:57:32;13.40;;;2.57;;
35540;SDS011;21650;48.840;9.162;2023-08-31T13:59:58;4.47;;;1.80;;
35540;SDS011;21650;48.840;9.162;2023-08-31T14:02:23;6.97;;;2.23;;
35540;SDS011;21650;48.840;9.162;2023-08-31T14:04:49;9.83;;;2.10;;
35540;SDS011;21650;48.840;9.162;2023-08-31T14:07:14;4.47;;;1.53;;
35540;SDS011;21650;48.840;9.162;2023-08-31T14:09:40;5.13;;;1.63;;
35540;SDS011;21650;48.840;9.162;2023-08-31T14:12:06;4.17;;;1.63;;
35540;SDS011;21650;48.840;9.162;2023-08-31T14:14:31;4.60;;;1.90;;
35540;SDS011;21650;48.840;9.162;2023-08-31T14:16:57;5.93;;;1.90;;
35540;SDS011;21650;48.840;9.162;2023-08-31T14:19:22;4.50;;;2.10;;
35540;SDS011;21650;48.840;9.162;2023-08-31T14:21:48;3.97;;;1.73;;
35540;SDS011;21650;48.840;9.162;2023-08-31T14:24:14;2.97;;;1.43;;
35540;SDS011;21650;48.840;9.162;2023-08-31T14:26:39;5.63;;;1.97;;
35540;SDS011;21650;48.840;9.162;2023-08-31T14:29:05;6.43;;;2.03;;
35540;SDS011;21650;48.840;9.162;2023-08-31T14:31:30;3.57;;;1.60;;
35540;SDS011;21650;48.840;9.162;2023-08-31T14:33:56;7.37;;;1.87;;
35540;SDS011;21650;48.840;9.162;2023-08-31T14:36:22;5.93;;;1.80;;
35540;SDS011;21650;48.840;9.162;2023-08-31T14:38:47;3.57;;;1.70;;
35540;SDS011;21650;48.840;9.162;2023-08-31T14:41:13;2.57;;;1.60;;
35540;SDS011;21650;48.840;9.162;2023-08-31T14:43:38;9.20;;;1.67;;
35540;SDS011;21650;48.840;9.162;2023-08-31T14:46:05;5.83;;;1.80;;
35540;SDS011;21650;48.840;9.162;2023-08-31T14:48:30;4.70;;;2.00;;
35540;SDS011;21650;48.840;9.162;2023-08-31T14:50:57;4.30;;;1.73;;
35540;SDS011;21650;48.840;9.162;2023-08-31T14:53:25;5.13;;;2.00;;
35540;SDS011;21650;48.840;9.162;2023-08-31T14:55:51;5.23;;;1.63;;
35540;SDS011;21650;48.840;9.162;2023-08-31T14:58:18;3.07;;;1.50;;
35540;SDS011;21650;48.840;9.162;2023-08-31T15:00:44;5.43;;;2.00;;
35540;SDS011;21650;48.840;9.162;2023-08-31T15:03:10;3.90;;;1.90;;